Back to top

Laramie, WY weather

Laramie Regional Airport, Laramie, WY: 7/04/2020 03:53
Visibility10 statute milessun with broken clouds
View 7-Day Forecast
Area Summary
Sky/CloudsBroken at 12000ft
Weather [last 24 hours]None
Pressure30.29 in.Hg (1026 hPa)
Dew Point43 °F (6.1 °C)
Relative Humidity55.3 %
Temperature59 °F (15 °C)red thermometer
Reading TimeMinimum to Maximum Temperature
6-hr ending 7/3@23:5364 °F to 82.9 °F (17.8 °C to 28.3 °C)
6-hr ending 7/3@17:5380.1 °F to 87.1 °F (26.7 °C to 30.6 °C)
6-hr ending 7/3@11:5348 °F to 82 °F (8.9 °C to 27.8 °C)
6-hr ending 7/3@05:5348 °F to 60.1 °F (8.9 °C to 15.6 °C)
24-hr ending 7/4@00:5348 °F to 87.1 °F (8.9 °C to 30.6 °C)
Wind4.6 MPH (4 KT) green arrow pointing 292.5 degrees
Wind FromWest/Northwest (300 Degrees)
Rolling 24-hr Peak Wind52.9 MPH (46 KT) on 7/3@23:13
Rolling 24-hr Peak Wind FromSoutheast (130 Degrees)
Twilight Begins05:00Sunshine Yesterday
Sunrise05:34N/A
Sunset20:40
Twilight Ends21:14
METARKLAR 040953Z AUTO 30004KT 10SM BKN120 15/06 A3029 RMK AO2 SLP132 T01500061
Tags: